sensor_id;sensor_type;location;lat;lon;timestamp;temperature;humidity
17998;DHT22;9124;48.144;17.098;2023-03-01T00:01:15;0.50;53.70
17998;DHT22;9124;48.144;17.098;2023-03-01T00:04:52;0.50;53.80
17998;DHT22;9124;48.144;17.098;2023-03-01T00:08:28;0.60;54.00
17998;DHT22;9124;48.144;17.098;2023-03-01T00:12:06;0.80;54.10
17998;DHT22;9124;48.144;17.098;2023-03-01T00:15:43;1.00;54.10
17998;DHT22;9124;48.144;17.098;2023-03-01T00:19:20;1.20;54.10
17998;DHT22;9124;48.144;17.098;2023-03-01T00:22:58;1.40;54.20
17998;DHT22;9124;48.144;17.098;2023-03-01T00:26:37;1.60;54.20
17998;DHT22;9124;48.144;17.098;2023-03-01T00:30:13;1.80;54.30
17998;DHT22;9124;48.144;17.098;2023-03-01T00:33:53;2.00;54.30
17998;DHT22;9124;48.144;17.098;2023-03-01T00:37:33;2.10;54.30
17998;DHT22;9124;48.144;17.098;2023-03-01T00:41:12;2.10;54.20
17998;DHT22;9124;48.144;17.098;2023-03-01T00:44:49;2.30;54.40
17998;DHT22;9124;48.144;17.098;2023-03-01T00:48:25;2.30;54.30
17998;DHT22;9124;48.144;17.098;2023-03-01T00:52:02;2.30;54.30
17998;DHT22;9124;48.144;17.098;2023-03-01T00:55:38;2.30;54.30
17998;DHT22;9124;48.144;17.098;2023-03-01T00:59:15;2.30;54.40
17998;DHT22;9124;48.144;17.098;2023-03-01T01:02:51;2.40;54.50
17998;DHT22;9124;48.144;17.098;2023-03-01T01:06:34;2.60;54.70
17998;DHT22;9124;48.144;17.098;2023-03-01T01:10:11;2.70;54.70
17998;DHT22;9124;48.144;17.098;2023-03-01T01:13:53;2.80;54.70
17998;DHT22;9124;48.144;17.098;2023-03-01T01:17:29;2.90;54.80
17998;DHT22;9124;48.144;17.098;2023-03-01T01:21:09;3.00;54.80
17998;DHT22;9124;48.144;17.098;2023-03-01T01:24:46;3.00;54.90
17998;DHT22;9124;48.144;17.098;2023-03-01T01:28:23;3.10;55.00
17998;DHT22;9124;48.144;17.098;2023-03-01T01:31:59;3.10;55.00
17998;DHT22;9124;48.144;17.098;2023-03-01T01:35:35;3.20;55.10
17998;DHT22;9124;48.144;17.098;2023-03-01T01:39:12;3.20;55.10
17998;DHT22;9124;48.144;17.098;2023-03-01T01:42:49;3.30;55.20
17998;DHT22;9124;48.144;17.098;2023-03-01T01:46:31;3.30;55.20
17998;DHT22;9124;48.144;17.098;2023-03-01T01:50:15;3.30;55.30
17998;DHT22;9124;48.144;17.098;2023-03-01T01:53:59;3.40;55.40
17998;DHT22;9124;48.144;17.098;2023-03-01T01:57:45;3.40;55.40
17998;DHT22;9124;48.144;17.098;2023-03-01T02:01:23;3.40;55.50
17998;DHT22;9124;48.144;17.098;2023-03-01T02:05:47;3.40;55.50
17998;DHT22;9124;48.144;17.098;2023-03-01T02:09:27;3.40;55.60
17998;DHT22;9124;48.144;17.098;2023-03-01T02:13:04;3.40;55.50
17998;DHT22;9124;48.144;17.098;2023-03-01T02:16:41;3.30;55.50
17998;DHT22;9124;48.144;17.098;2023-03-01T02:20:27;3.30;55.60
17998;DHT22;9124;48.144;17.098;2023-03-01T02:31:54;3.30;55.70
17998;DHT22;9124;48.144;17.098;2023-03-01T02:35:35;3.30;55.80
17998;DHT22;9124;48.144;17.098;2023-03-01T02:39:20;3.30;55.80
17998;DHT22;9124;48.144;17.098;2023-03-01T02:42:58;3.30;55.80
17998;DHT22;9124;48.144;17.098;2023-03-01T02:46:43;3.30;55.80
17998;DHT22;9124;48.144;17.098;2023-03-01T02:58:00;3.40;56.10
17998;DHT22;9124;48.144;17.098;2023-03-01T03:01:38;3.30;56.00
17998;DHT22;9124;48.144;17.098;2023-03-01T03:05:23;3.40;56.00
17998;DHT22;9124;48.144;17.098;2023-03-01T03:09:04;3.40;56.10
17998;DHT22;9124;48.144;17.098;2023-03-01T03:12:41;3.40;56.10
17998;DHT22;9124;48.144;17.098;2023-03-01T03:16:18;3.30;56.10
17998;DHT22;9124;48.144;17.098;2023-03-01T03:19:55;3.40;56.10
17998;DHT22;9124;48.144;17.098;2023-03-01T03:23:31;3.40;56.10
17998;DHT22;9124;48.144;17.098;2023-03-01T03:27:08;3.50;56.20
17998;DHT22;9124;48.144;17.098;2023-03-01T03:30:44;3.50;56.30
17998;DHT22;9124;48.144;17.098;2023-03-01T03:34:21;3.50;56.30
17998;DHT22;9124;48.144;17.098;2023-03-01T03:38:00;3.50;56.30
17998;DHT22;9124;48.144;17.098;2023-03-01T03:41:39;3.50;56.40
17998;DHT22;9124;48.144;17.098;2023-03-01T03:45:18;3.50;56.40
17998;DHT22;9124;48.144;17.098;2023-03-01T03:48:54;3.50;56.50
17998;DHT22;9124;48.144;17.098;2023-03-01T03:52:31;3.50;56.40
17998;DHT22;9124;48.144;17.098;2023-03-01T03:56:08;3.50;56.50
17998;DHT22;9124;48.144;17.098;2023-03-01T03:59:44;3.50;56.50
17998;DHT22;9124;48.144;17.098;2023-03-01T04:03:21;3.50;56.50
17998;DHT22;9124;48.144;17.098;2023-03-01T04:06:58;3.50;56.50
17998;DHT22;9124;48.144;17.098;2023-03-01T04:10:40;3.50;56.50
17998;DHT22;9124;48.144;17.098;2023-03-01T04:14:17;3.60;56.60
17998;DHT22;9124;48.144;17.098;2023-03-01T04:17:54;3.70;56.60
17998;DHT22;9124;48.144;17.098;2023-03-01T04:21:30;3.70;56.60
17998;DHT22;9124;48.144;17.098;2023-03-01T04:25:07;3.70;56.60
17998;DHT22;9124;48.144;17.098;2023-03-01T04:28:44;3.70;56.60
17998;DHT22;9124;48.144;17.098;2023-03-01T04:32:21;3.70;57.20
17998;DHT22;9124;48.144;17.098;2023-03-01T04:35:58;3.70;56.60
17998;DHT22;9124;48.144;17.098;2023-03-01T04:39:34;3.60;56.60
17998;DHT22;9124;48.144;17.098;2023-03-01T04:43:21;3.70;56.70
17998;DHT22;9124;48.144;17.098;2023-03-01T04:46:58;3.70;56.70
17998;DHT22;9124;48.144;17.098;2023-03-01T04:50:34;3.80;56.80
17998;DHT22;9124;48.144;17.098;2023-03-01T04:54:11;3.80;56.80
17998;DHT22;9124;48.144;17.098;2023-03-01T04:57:47;3.80;56.80
17998;DHT22;9124;48.144;17.098;2023-03-01T05:01:24;3.80;56.80
17998;DHT22;9124;48.144;17.098;2023-03-01T05:05:00;3.80;56.80
17998;DHT22;9124;48.144;17.098;2023-03-01T05:08:38;3.90;56.80
17998;DHT22;9124;48.144;17.098;2023-03-01T05:12:15;3.80;56.80
17998;DHT22;9124;48.144;17.098;2023-03-01T05:16:02;3.90;56.80
17998;DHT22;9124;48.144;17.098;2023-03-01T05:19:39;3.90;56.80
17998;DHT22;9124;48.144;17.098;2023-03-01T05:23:19;3.90;56.80
17998;DHT22;9124;48.144;17.098;2023-03-01T05:26:55;3.90;56.90
17998;DHT22;9124;48.144;17.098;2023-03-01T05:30:33;3.90;56.90
17998;DHT22;9124;48.144;17.098;2023-03-01T05:34:10;4.00;56.90
17998;DHT22;9124;48.144;17.098;2023-03-01T05:37:49;4.00;56.90
17998;DHT22;9124;48.144;17.098;2023-03-01T05:41:25;4.10;57.00
17998;DHT22;9124;48.144;17.098;2023-03-01T05:45:02;4.20;57.00
17998;DHT22;9124;48.144;17.098;2023-03-01T05:48:38;4.30;56.90
17998;DHT22;9124;48.144;17.098;2023-03-01T05:52:15;4.40;56.90
17998;DHT22;9124;48.144;17.098;2023-03-01T05:55:51;4.40;56.90
17998;DHT22;9124;48.144;17.098;2023-03-01T05:59:27;4.40;56.90
17998;DHT22;9124;48.144;17.098;2023-03-01T06:03:03;4.50;56.90
17998;DHT22;9124;48.144;17.098;2023-03-01T06:06:40;4.50;56.90
17998;DHT22;9124;48.144;17.098;2023-03-01T06:10:17;4.50;56.90
17998;DHT22;9124;48.144;17.098;2023-03-01T06:13:53;4.60;56.80
17998;DHT22;9124;48.144;17.098;2023-03-01T06:17:32;4.70;56.80
17998;DHT22;9124;48.144;17.098;2023-03-01T06:21:08;4.70;56.80
17998;DHT22;9124;48.144;17.098;2023-03-01T06:24:45;4.80;56.80
17998;DHT22;9124;48.144;17.098;2023-03-01T06:28:21;5.00;56.80
17998;DHT22;9124;48.144;17.098;2023-03-01T06:31:58;5.10;56.80
17998;DHT22;9124;48.144;17.098;2023-03-01T06:35:34;5.10;56.70
17998;DHT22;9124;48.144;17.098;2023-03-01T06:39:11;5.10;56.70
17998;DHT22;9124;48.144;17.098;2023-03-01T06:42:50;5.20;56.60
17998;DHT22;9124;48.144;17.098;2023-03-01T06:46:27;5.30;56.60
17998;DHT22;9124;48.144;17.098;2023-03-01T06:50:03;5.50;56.50
17998;DHT22;9124;48.144;17.098;2023-03-01T06:53:40;5.70;56.50
17998;DHT22;9124;48.144;17.098;2023-03-01T06:57:16;5.80;56.30
17998;DHT22;9124;48.144;17.098;2023-03-01T07:00:53;5.80;56.20
17998;DHT22;9124;48.144;17.098;2023-03-01T07:04:29;6.00;56.10
17998;DHT22;9124;48.144;17.098;2023-03-01T07:08:06;6.00;56.10
17998;DHT22;9124;48.144;17.098;2023-03-01T07:11:43;6.20;55.90
17998;DHT22;9124;48.144;17.098;2023-03-01T07:15:19;6.20;55.80
17998;DHT22;9124;48.144;17.098;2023-03-01T07:18:55;6.20;55.80
17998;DHT22;9124;48.144;17.098;2023-03-01T07:22:32;6.10;55.60
17998;DHT22;9124;48.144;17.098;2023-03-01T07:26:08;6.00;55.70
17998;DHT22;9124;48.144;17.098;2023-03-01T07:29:44;6.20;55.90
17998;DHT22;9124;48.144;17.098;2023-03-01T07:33:21;6.70;55.90
17998;DHT22;9124;48.144;17.098;2023-03-01T07:36:57;7.00;55.50
17998;DHT22;9124;48.144;17.098;2023-03-01T07:40:33;7.40;55.40
17998;DHT22;9124;48.144;17.098;2023-03-01T07:44:10;8.20;55.40
17998;DHT22;9124;48.144;17.098;2023-03-01T07:47:46;8.90;54.90
17998;DHT22;9124;48.144;17.098;2023-03-01T07:51:23;9.00;54.20
17998;DHT22;9124;48.144;17.098;2023-03-01T07:54:59;8.90;54.00
17998;DHT22;9124;48.144;17.098;2023-03-01T07:58:38;9.10;54.00
17998;DHT22;9124;48.144;17.098;2023-03-01T08:02:14;9.30;54.10
17998;DHT22;9124;48.144;17.098;2023-03-01T08:05:51;9.50;53.80
17998;DHT22;9124;48.144;17.098;2023-03-01T08:09:27;9.60;53.70
17998;DHT22;9124;48.144;17.098;2023-03-01T08:13:04;9.60;53.60
17998;DHT22;9124;48.144;17.098;2023-03-01T08:16:40;9.80;53.40
17998;DHT22;9124;48.144;17.098;2023-03-01T08:20:16;9.40;53.00
17998;DHT22;9124;48.144;17.098;2023-03-01T08:23:53;9.50;53.30
17998;DHT22;9124;48.144;17.098;2023-03-01T08:27:29;9.70;53.00
17998;DHT22;9124;48.144;17.098;2023-03-01T08:31:24;9.70;53.10
17998;DHT22;9124;48.144;17.098;2023-03-01T08:35:00;9.80;53.10
17998;DHT22;9124;48.144;17.098;2023-03-01T08:38:37;10.00;52.80
17998;DHT22;9124;48.144;17.098;2023-03-01T08:42:13;10.20;52.90
17998;DHT22;9124;48.144;17.098;2023-03-01T08:45:49;10.40;52.30
17998;DHT22;9124;48.144;17.098;2023-03-01T08:49:25;10.70;52.40
17998;DHT22;9124;48.144;17.098;2023-03-01T08:53:02;11.60;52.80
17998;DHT22;9124;48.144;17.098;2023-03-01T08:56:38;14.20;54.40
17998;DHT22;9124;48.144;17.098;2023-03-01T09:00:15;16.70;53.80
17998;DHT22;9124;48.144;17.098;2023-03-01T09:03:53;19.60;53.00
17998;DHT22;9124;48.144;17.098;2023-03-01T09:07:30;20.60;49.80
17998;DHT22;9124;48.144;17.098;2023-03-01T09:11:08;19.60;47.70
17998;DHT22;9124;48.144;17.098;2023-03-01T09:14:45;21.70;48.40
17998;DHT22;9124;48.144;17.098;2023-03-01T09:18:21;23.30;47.10
17998;DHT22;9124;48.144;17.098;2023-03-01T09:21:57;23.70;44.70
17998;DHT22;9124;48.144;17.098;2023-03-01T09:25:34;23.70;43.50
17998;DHT22;9124;48.144;17.098;2023-03-01T09:29:11;22.60;42.20
17998;DHT22;9124;48.144;17.098;2023-03-01T09:32:47;22.80;42.50
17998;DHT22;9124;48.144;17.098;2023-03-01T09:36:25;25.10;42.50
17998;DHT22;9124;48.144;17.098;2023-03-01T09:40:03;25.80;39.80
17998;DHT22;9124;48.144;17.098;2023-03-01T09:44:03;25.10;38.60
17998;DHT22;9124;48.144;17.098;2023-03-01T09:47:41;24.20;36.70
17998;DHT22;9124;48.144;17.098;2023-03-01T09:51:27;24.10;36.80
17998;DHT22;9124;48.144;17.098;2023-03-01T09:55:15;25.30;38.10
17998;DHT22;9124;48.144;17.098;2023-03-01T10:02:51;27.30;34.90
17998;DHT22;9124;48.144;17.098;2023-03-01T10:06:30;26.20;33.30
17998;DHT22;9124;48.144;17.098;2023-03-01T10:10:07;26.90;34.40
17998;DHT22;9124;48.144;17.098;2023-03-01T10:13:55;27.50;33.40
17998;DHT22;9124;48.144;17.098;2023-03-01T10:21:23;29.10;32.30
17998;DHT22;9124;48.144;17.098;2023-03-01T10:25:02;29.50;32.10
17998;DHT22;9124;48.144;17.098;2023-03-01T10:32:31;29.50;31.00
17998;DHT22;9124;48.144;17.098;2023-03-01T10:36:08;31.50;31.20
17998;DHT22;9124;48.144;17.098;2023-03-01T10:43:52;32.60;29.30
17998;DHT22;9124;48.144;17.098;2023-03-01T10:47:30;32.00;28.90
17998;DHT22;9124;48.144;17.098;2023-03-01T10:51:07;32.10;29.00
17998;DHT22;9124;48.144;17.098;2023-03-01T10:54:58;31.00;28.30
17998;DHT22;9124;48.144;17.098;2023-03-01T10:58:37;29.40;27.70
17998;DHT22;9124;48.144;17.098;2023-03-01T11:02:17;27.80;28.00
17998;DHT22;9124;48.144;17.098;2023-03-01T11:09:48;26.60;28.10
17998;DHT22;9124;48.144;17.098;2023-03-01T11:13:24;26.20;27.30
17998;DHT22;9124;48.144;17.098;2023-03-01T11:20:48;24.60;27.80
17998;DHT22;9124;48.144;17.098;2023-03-01T11:24:45;24.70;28.20
17998;DHT22;9124;48.144;17.098;2023-03-01T11:28:23;22.60;27.60
17998;DHT22;9124;48.144;17.098;2023-03-01T11:32:04;20.80;28.00
17998;DHT22;9124;48.144;17.098;2023-03-01T11:39:46;19.10;29.10
17998;DHT22;9124;48.144;17.098;2023-03-01T11:51:28;15.50;31.00
17998;DHT22;9124;48.144;17.098;2023-03-01T12:07:25;14.20;33.30
17998;DHT22;9124;48.144;17.098;2023-03-01T12:23:10;13.20;34.20
17998;DHT22;9124;48.144;17.098;2023-03-01T12:35:06;12.90;35.20
17998;DHT22;9124;48.144;17.098;2023-03-01T12:50:47;12.60;36.10
17998;DHT22;9124;48.144;17.098;2023-03-01T12:54:28;12.40;36.50
17998;DHT22;9124;48.144;17.098;2023-03-01T12:58:24;12.50;36.50
17998;DHT22;9124;48.144;17.098;2023-03-01T13:02:22;12.60;36.80
17998;DHT22;9124;48.144;17.098;2023-03-01T13:06:23;12.70;37.00
17998;DHT22;9124;48.144;17.098;2023-03-01T13:10:34;12.60;37.30
17998;DHT22;9124;48.144;17.098;2023-03-01T13:21:38;12.30;38.00
17998;DHT22;9124;48.144;17.098;2023-03-01T13:25:18;12.10;38.30
17998;DHT22;9124;48.144;17.098;2023-03-01T13:28:56;12.00;38.50
17998;DHT22;9124;48.144;17.098;2023-03-01T13:32:35;12.30;38.60
17998;DHT22;9124;48.144;17.098;2023-03-01T13:43:54;12.00;39.20
17998;DHT22;9124;48.144;17.098;2023-03-01T13:47:32;12.20;39.20
17998;DHT22;9124;48.144;17.098;2023-03-01T13:51:12;12.10;39.40
17998;DHT22;9124;48.144;17.098;2023-03-01T13:54:49;12.00;39.60
17998;DHT22;9124;48.144;17.098;2023-03-01T13:58:29;11.80;39.60
17998;DHT22;9124;48.144;17.098;2023-03-01T14:02:16;11.60;40.00
17998;DHT22;9124;48.144;17.098;2023-03-01T14:06:16;11.10;40.50
17998;DHT22;9124;48.144;17.098;2023-03-01T14:09:59;10.40;41.00
17998;DHT22;9124;48.144;17.098;2023-03-01T14:21:09;9.60;42.20
17998;DHT22;9124;48.144;17.098;2023-03-01T14:24:51;9.50;42.20
17998;DHT22;9124;48.144;17.098;2023-03-01T14:28:30;9.40;42.80
17998;DHT22;9124;48.144;17.098;2023-03-01T14:32:21;9.40;42.70
17998;DHT22;9124;48.144;17.098;2023-03-01T14:36:10;9.30;43.10
17998;DHT22;9124;48.144;17.098;2023-03-01T14:39:47;9.20;43.50
17998;DHT22;9124;48.144;17.098;2023-03-01T14:43:24;9.20;43.60
17998;DHT22;9124;48.144;17.098;2023-03-01T14:47:04;9.10;43.90
17998;DHT22;9124;48.144;17.098;2023-03-01T14:50:42;9.10;44.10
17998;DHT22;9124;48.144;17.098;2023-03-01T14:58:17;9.10;44.40
17998;DHT22;9124;48.144;17.098;2023-03-01T15:01:57;9.20;44.40
17998;DHT22;9124;48.144;17.098;2023-03-01T15:05:34;9.40;44.70
17998;DHT22;9124;48.144;17.098;2023-03-01T15:09:15;9.60;44.70
17998;DHT22;9124;48.144;17.098;2023-03-01T15:12:52;9.80;45.40
17998;DHT22;9124;48.144;17.098;2023-03-01T15:16:31;9.60;44.70
17998;DHT22;9124;48.144;17.098;2023-03-01T15:20:37;9.40;44.70
17998;DHT22;9124;48.144;17.098;2023-03-01T15:27:57;9.10;45.10
17998;DHT22;9124;48.144;17.098;2023-03-01T15:31:36;8.90;45.30
17998;DHT22;9124;48.144;17.098;2023-03-01T15:35:38;8.80;45.60
17998;DHT22;9124;48.144;17.098;2023-03-01T15:39:35;8.70;45.90
17998;DHT22;9124;48.144;17.098;2023-03-01T15:43:46;8.60;46.00
17998;DHT22;9124;48.144;17.098;2023-03-01T15:47:25;8.50;46.30
17998;DHT22;9124;48.144;17.098;2023-03-01T15:51:02;8.30;46.10
17998;DHT22;9124;48.144;17.098;2023-03-01T15:54:39;8.30;46.20
17998;DHT22;9124;48.144;17.098;2023-03-01T15:58:23;8.20;46.40
17998;DHT22;9124;48.144;17.098;2023-03-01T16:02:18;8.10;46.60
17998;DHT22;9124;48.144;17.098;2023-03-01T16:05:56;8.00;46.60
17998;DHT22;9124;48.144;17.098;2023-03-01T16:09:33;7.90;46.80
17998;DHT22;9124;48.144;17.098;2023-03-01T16:13:13;7.80;46.90
17998;DHT22;9124;48.144;17.098;2023-03-01T16:16:49;7.70;47.10
17998;DHT22;9124;48.144;17.098;2023-03-01T16:20:27;7.60;47.20
17998;DHT22;9124;48.144;17.098;2023-03-01T16:24:04;7.50;47.40
17998;DHT22;9124;48.144;17.098;2023-03-01T16:27:46;7.40;47.60
17998;DHT22;9124;48.144;17.098;2023-03-01T16:31:23;7.30;47.80
17998;DHT22;9124;48.144;17.098;2023-03-01T16:35:02;7.20;47.80
17998;DHT22;9124;48.144;17.098;2023-03-01T16:38:39;7.00;47.90
17998;DHT22;9124;48.144;17.098;2023-03-01T16:42:16;6.80;48.10
17998;DHT22;9124;48.144;17.098;2023-03-01T16:45:53;6.70;48.30
17998;DHT22;9124;48.144;17.098;2023-03-01T16:49:29;6.60;48.50
17998;DHT22;9124;48.144;17.098;2023-03-01T16:53:05;6.50;48.70
17998;DHT22;9124;48.144;17.098;2023-03-01T16:56:41;6.40;48.80
17998;DHT22;9124;48.144;17.098;2023-03-01T17:00:18;6.30;48.90
17998;DHT22;9124;48.144;17.098;2023-03-01T17:03:54;6.40;49.50
17998;DHT22;9124;48.144;17.098;2023-03-01T17:07:33;6.40;49.80
17998;DHT22;9124;48.144;17.098;2023-03-01T17:11:13;6.40;49.80
17998;DHT22;9124;48.144;17.098;2023-03-01T17:14:50;6.40;50.00
17998;DHT22;9124;48.144;17.098;2023-03-01T17:18:26;6.30;50.00
17998;DHT22;9124;48.144;17.098;2023-03-01T17:22:03;6.20;50.20
17998;DHT22;9124;48.144;17.098;2023-03-01T17:26:03;6.20;50.40
17998;DHT22;9124;48.144;17.098;2023-03-01T17:29:40;6.10;50.70
17998;DHT22;9124;48.144;17.098;2023-03-01T17:33:17;6.10;50.50
17998;DHT22;9124;48.144;17.098;2023-03-01T17:36:54;6.00;50.50
17998;DHT22;9124;48.144;17.098;2023-03-01T17:40:31;5.90;50.60
17998;DHT22;9124;48.144;17.098;2023-03-01T17:44:08;5.90;51.20
17998;DHT22;9124;48.144;17.098;2023-03-01T17:47:44;5.80;50.70
17998;DHT22;9124;48.144;17.098;2023-03-01T17:51:21;5.80;51.40
17998;DHT22;9124;48.144;17.098;2023-03-01T17:54:57;5.70;50.90
17998;DHT22;9124;48.144;17.098;2023-03-01T17:58:34;5.60;51.00
17998;DHT22;9124;48.144;17.098;2023-03-01T18:02:12;5.50;51.10
17998;DHT22;9124;48.144;17.098;2023-03-01T18:05:48;5.50;51.30
17998;DHT22;9124;48.144;17.098;2023-03-01T18:09:26;5.50;51.30
17998;DHT22;9124;48.144;17.098;2023-03-01T18:13:04;5.60;51.50
17998;DHT22;9124;48.144;17.098;2023-03-01T18:16:40;5.60;51.50
17998;DHT22;9124;48.144;17.098;2023-03-01T18:20:17;5.60;51.50
17998;DHT22;9124;48.144;17.098;2023-03-01T18:23:55;5.60;51.60
17998;DHT22;9124;48.144;17.098;2023-03-01T18:27:32;5.50;51.80
17998;DHT22;9124;48.144;17.098;2023-03-01T18:31:09;5.50;51.90
17998;DHT22;9124;48.144;17.098;2023-03-01T18:34:46;5.40;52.00
17998;DHT22;9124;48.144;17.098;2023-03-01T18:38:24;5.40;52.10
17998;DHT22;9124;48.144;17.098;2023-03-01T18:42:00;5.40;52.20
17998;DHT22;9124;48.144;17.098;2023-03-01T18:45:37;5.30;52.30
17998;DHT22;9124;48.144;17.098;2023-03-01T18:49:14;5.30;52.40
17998;DHT22;9124;48.144;17.098;2023-03-01T18:52:51;5.30;52.50
17998;DHT22;9124;48.144;17.098;2023-03-01T18:56:31;5.30;52.70
17998;DHT22;9124;48.144;17.098;2023-03-01T19:00:08;5.30;52.80
17998;DHT22;9124;48.144;17.098;2023-03-01T19:03:46;5.30;52.80
17998;DHT22;9124;48.144;17.098;2023-03-01T19:07:23;5.30;52.90
17998;DHT22;9124;48.144;17.098;2023-03-01T19:11:03;5.20;52.90
17998;DHT22;9124;48.144;17.098;2023-03-01T19:14:40;5.20;53.10
17998;DHT22;9124;48.144;17.098;2023-03-01T19:18:16;5.10;53.10
17998;DHT22;9124;48.144;17.098;2023-03-01T19:21:53;5.20;57.00
17998;DHT22;9124;48.144;17.098;2023-03-01T19:25:29;5.20;55.10
17998;DHT22;9124;48.144;17.098;2023-03-01T19:29:06;5.20;54.70
17998;DHT22;9124;48.144;17.098;2023-03-01T19:32:43;5.20;54.60
17998;DHT22;9124;48.144;17.098;2023-03-01T19:36:19;5.20;54.50
17998;DHT22;9124;48.144;17.098;2023-03-01T19:39:56;5.20;54.50
17998;DHT22;9124;48.144;17.098;2023-03-01T19:43:32;5.20;54.50
17998;DHT22;9124;48.144;17.098;2023-03-01T19:47:08;5.20;54.60
17998;DHT22;9124;48.144;17.098;2023-03-01T19:50:45;5.10;54.50
17998;DHT22;9124;48.144;17.098;2023-03-01T19:54:21;5.10;54.70
17998;DHT22;9124;48.144;17.098;2023-03-01T19:57:58;5.10;54.70
17998;DHT22;9124;48.144;17.098;2023-03-01T20:01:34;5.00;54.80
17998;DHT22;9124;48.144;17.098;2023-03-01T20:05:12;4.90;54.80
17998;DHT22;9124;48.144;17.098;2023-03-01T20:08:48;4.80;54.90
17998;DHT22;9124;48.144;17.098;2023-03-01T20:12:25;4.70;54.90
17998;DHT22;9124;48.144;17.098;2023-03-01T20:16:01;4.70;55.10
17998;DHT22;9124;48.144;17.098;2023-03-01T20:19:38;4.60;55.20
17998;DHT22;9124;48.144;17.098;2023-03-01T20:23:14;4.60;55.30
17998;DHT22;9124;48.144;17.098;2023-03-01T20:26:50;4.60;55.50
17998;DHT22;9124;48.144;17.098;2023-03-01T20:30:27;4.60;55.50
17998;DHT22;9124;48.144;17.098;2023-03-01T20:34:03;4.60;55.60
17998;DHT22;9124;48.144;17.098;2023-03-01T20:37:39;4.50;55.60
17998;DHT22;9124;48.144;17.098;2023-03-01T20:41:15;4.40;55.70
17998;DHT22;9124;48.144;17.098;2023-03-01T20:44:52;4.40;55.80
17998;DHT22;9124;48.144;17.098;2023-03-01T20:48:29;4.40;55.90
17998;DHT22;9124;48.144;17.098;2023-03-01T20:52:05;4.50;56.00
17998;DHT22;9124;48.144;17.098;2023-03-01T20:55:41;4.50;56.10
17998;DHT22;9124;48.144;17.098;2023-03-01T20:59:18;4.50;56.20
17998;DHT22;9124;48.144;17.098;2023-03-01T21:02:54;4.40;56.30
17998;DHT22;9124;48.144;17.098;2023-03-01T21:06:31;4.40;56.40
17998;DHT22;9124;48.144;17.098;2023-03-01T21:10:08;4.40;56.50
17998;DHT22;9124;48.144;17.098;2023-03-01T21:13:45;4.40;56.60
17998;DHT22;9124;48.144;17.098;2023-03-01T21:17:22;4.30;56.60
17998;DHT22;9124;48.144;17.098;2023-03-01T21:21:09;4.30;56.70
17998;DHT22;9124;48.144;17.098;2023-03-01T21:24:46;4.20;57.00
17998;DHT22;9124;48.144;17.098;2023-03-01T21:28:23;4.30;56.90
17998;DHT22;9124;48.144;17.098;2023-03-01T21:32:03;4.30;56.90
17998;DHT22;9124;48.144;17.098;2023-03-01T21:35:39;4.40;57.10
17998;DHT22;9124;48.144;17.098;2023-03-01T21:39:15;4.40;57.10
17998;DHT22;9124;48.144;17.098;2023-03-01T21:42:52;4.40;57.10
17998;DHT22;9124;48.144;17.098;2023-03-01T21:46:31;4.40;57.20
17998;DHT22;9124;48.144;17.098;2023-03-01T21:50:08;4.40;57.30
17998;DHT22;9124;48.144;17.098;2023-03-01T21:53:45;4.40;57.40
17998;DHT22;9124;48.144;17.098;2023-03-01T21:57:21;4.30;57.50
17998;DHT22;9124;48.144;17.098;2023-03-01T22:01:06;4.30;57.50
17998;DHT22;9124;48.144;17.098;2023-03-01T22:04:42;4.20;57.70
17998;DHT22;9124;48.144;17.098;2023-03-01T22:08:20;4.20;57.70
17998;DHT22;9124;48.144;17.098;2023-03-01T22:11:57;4.10;57.90
17998;DHT22;9124;48.144;17.098;2023-03-01T22:15:40;4.10;57.90
17998;DHT22;9124;48.144;17.098;2023-03-01T22:19:20;4.00;58.10
17998;DHT22;9124;48.144;17.098;2023-03-01T22:22:57;3.90;58.00
17998;DHT22;9124;48.144;17.098;2023-03-01T22:26:38;3.80;58.20
17998;DHT22;9124;48.144;17.098;2023-03-01T22:30:15;3.90;58.40
17998;DHT22;9124;48.144;17.098;2023-03-01T22:33:53;3.80;58.40
17998;DHT22;9124;48.144;17.098;2023-03-01T22:37:30;3.80;58.50
17998;DHT22;9124;48.144;17.098;2023-03-01T22:41:06;3.80;58.60
17998;DHT22;9124;48.144;17.098;2023-03-01T22:44:43;3.80;58.70
17998;DHT22;9124;48.144;17.098;2023-03-01T22:48:19;3.70;59.30
17998;DHT22;9124;48.144;17.098;2023-03-01T22:51:56;3.70;58.90
17998;DHT22;9124;48.144;17.098;2023-03-01T22:55:32;3.70;59.00
17998;DHT22;9124;48.144;17.098;2023-03-01T22:59:11;3.70;59.10
17998;DHT22;9124;48.144;17.098;2023-03-01T23:02:48;3.60;59.00
17998;DHT22;9124;48.144;17.098;2023-03-01T23:06:25;3.50;59.10
17998;DHT22;9124;48.144;17.098;2023-03-01T23:10:05;3.50;59.20
17998;DHT22;9124;48.144;17.098;2023-03-01T23:13:42;3.40;59.30
17998;DHT22;9124;48.144;17.098;2023-03-01T23:17:19;3.30;59.40
17998;DHT22;9124;48.144;17.098;2023-03-01T23:20:55;3.20;59.50
17998;DHT22;9124;48.144;17.098;2023-03-01T23:24:33;3.10;59.50
17998;DHT22;9124;48.144;17.098;2023-03-01T23:28:09;3.10;59.70
17998;DHT22;9124;48.144;17.098;2023-03-01T23:31:45;3.10;59.80
17998;DHT22;9124;48.144;17.098;2023-03-01T23:35:22;3.00;59.90
17998;DHT22;9124;48.144;17.098;2023-03-01T23:39:01;3.00;59.90
17998;DHT22;9124;48.144;17.098;2023-03-01T23:42:38;3.00;60.10
17998;DHT22;9124;48.144;17.098;2023-03-01T23:46:17;3.00;60.10
17998;DHT22;9124;48.144;17.098;2023-03-01T23:49:54;3.00;60.20
17998;DHT22;9124;48.144;17.098;2023-03-01T23:53:38;3.10;60.30
17998;DHT22;9124;48.144;17.098;2023-03-01T23:57:15;3.20;60.40
